createdAt,value
2017-12-24T00:02:18.668Z,11.65
2017-12-24T00:04:46.076Z,12.68
2017-12-24T00:07:12.774Z,9.07
2017-12-24T00:09:40.173Z,11.15
2017-12-24T00:12:06.865Z,11.43
2017-12-24T00:14:34.290Z,13.38
2017-12-24T00:17:00.950Z,10.43
2017-12-24T00:19:27.633Z,9.07
2017-12-24T00:21:55.052Z,10.45
2017-12-24T00:24:21.707Z,10.52
2017-12-24T00:26:48.374Z,10.77
2017-12-24T00:29:15.065Z,9.68
2017-12-24T00:31:41.727Z,10.27
2017-12-24T00:34:08.387Z,8.52
2017-12-24T00:36:35.077Z,9.27
2017-12-24T00:39:01.742Z,11.60
2017-12-24T00:41:28.425Z,11.35
2017-12-24T00:43:55.861Z,10.48
2017-12-24T00:46:22.524Z,13.62
2017-12-24T00:48:49.961Z,13.20
2017-12-24T00:51:16.618Z,15.07
2017-12-24T00:53:44.022Z,13.23
2017-12-24T00:56:10.706Z,14.27
2017-12-24T00:58:37.365Z,15.50
2017-12-24T01:01:04.038Z,13.32
2017-12-24T01:03:30.746Z,14.38
2017-12-24T01:05:57.393Z,13.95
2017-12-24T01:08:24.809Z,14.70
2017-12-24T01:10:51.483Z,18.48
2017-12-24T01:13:18.139Z,17.85
2017-12-24T01:15:44.825Z,15.95
2017-12-24T01:18:11.493Z,14.25
2017-12-24T01:20:38.161Z,13.13
2017-12-24T01:23:04.898Z,14.75
2017-12-24T01:25:31.585Z,17.20
2017-12-24T01:27:58.430Z,15.73
2017-12-24T01:30:25.103Z,13.60
2017-12-24T01:32:52.677Z,14.63
2017-12-24T01:35:19.331Z,13.35
2017-12-24T01:37:45.977Z,15.85
2017-12-24T01:40:12.646Z,15.57
2017-12-24T01:42:40.063Z,10.60
2017-12-24T01:45:07.471Z,14.80
2017-12-24T01:47:51.064Z,12.63
2017-12-24T01:50:17.712Z,14.20
2017-12-24T01:52:44.380Z,14.40
2017-12-24T01:55:11.813Z,12.50
2017-12-24T01:57:38.482Z,14.32
2017-12-24T02:00:05.871Z,13.40
2017-12-24T02:02:32.548Z,13.00
2017-12-24T02:04:59.229Z,12.98
2017-12-24T02:07:25.890Z,14.85
2017-12-24T02:09:53.397Z,13.50
2017-12-24T02:12:20.060Z,13.40
2017-12-24T02:14:46.741Z,14.05
2017-12-24T02:17:13.395Z,12.48
2017-12-24T02:19:40.088Z,12.75
2017-12-24T02:22:07.534Z,12.75
2017-12-24T02:24:34.188Z,11.95
2017-12-24T02:27:00.858Z,14.00
2017-12-24T02:29:28.268Z,9.43
2017-12-24T02:31:54.913Z,9.98
2017-12-24T02:34:21.590Z,10.00
2017-12-24T02:36:48.240Z,10.23
2017-12-24T02:39:14.932Z,8.93
2017-12-24T02:41:41.592Z,8.88
2017-12-24T02:44:08.294Z,11.52
2017-12-24T02:46:34.989Z,9.02
2017-12-24T02:49:01.653Z,9.38
2017-12-24T02:51:29.052Z,7.47
2017-12-24T02:53:55.725Z,10.85
2017-12-24T02:56:22.409Z,9.82
2017-12-24T02:58:49.780Z,8.55
2017-12-24T03:01:16.471Z,8.77
2017-12-24T03:03:43.883Z,8.20
2017-12-24T03:06:10.574Z,8.68
2017-12-24T03:08:37.254Z,8.23
2017-12-24T03:11:04.634Z,9.43
2017-12-24T03:13:31.342Z,6.80
2017-12-24T03:15:58.014Z,7.40
2017-12-24T03:18:24.675Z,7.12
2017-12-24T03:20:51.363Z,7.80
2017-12-24T03:23:18.044Z,8.63
2017-12-24T03:25:44.709Z,5.95
2017-12-24T03:28:11.381Z,6.30
2017-12-24T03:30:38.022Z,7.32
2017-12-24T03:33:04.684Z,6.53
2017-12-24T03:35:31.377Z,6.22
2017-12-24T03:37:58.010Z,8.05
2017-12-24T03:40:24.684Z,5.80
2017-12-24T03:42:51.420Z,8.20
2017-12-24T03:45:18.100Z,7.05
2017-12-24T03:47:44.779Z,8.02
2017-12-24T03:50:11.449Z,6.60
2017-12-24T03:52:38.136Z,6.43
2017-12-24T03:55:05.576Z,6.70
2017-12-24T03:57:32.230Z,7.85
2017-12-24T03:59:58.877Z,7.97
2017-12-24T04:02:26.288Z,9.13
2017-12-24T04:04:52.940Z,5.85
2017-12-24T04:07:19.607Z,7.03
2017-12-24T04:09:46.282Z,7.22
2017-12-24T04:12:12.935Z,6.72
2017-12-24T04:14:39.574Z,6.85
2017-12-24T04:17:06.259Z,6.18
2017-12-24T04:19:32.903Z,4.53
2017-12-24T04:21:59.585Z,7.65
2017-12-24T04:24:27.008Z,6.57
2017-12-24T04:26:53.674Z,5.97
2017-12-24T04:29:20.337Z,6.97
2017-12-24T04:31:47.783Z,7.62
2017-12-24T04:34:15.216Z,6.00
2017-12-24T04:36:41.880Z,6.28
2017-12-24T04:39:08.547Z,4.93
2017-12-24T04:41:35.226Z,4.90
2017-12-24T04:44:01.874Z,5.50
2017-12-24T04:46:28.550Z,4.10
2017-12-24T04:48:55.294Z,4.93
2017-12-24T04:51:21.949Z,4.32
2017-12-24T04:53:49.349Z,4.32
2017-12-24T04:56:16.073Z,7.55
2017-12-24T04:58:42.747Z,5.47
2017-12-24T05:01:09.389Z,4.95
2017-12-24T05:03:36.054Z,5.90
2017-12-24T05:06:02.722Z,6.37
2017-12-24T05:08:30.124Z,5.37
2017-12-24T05:10:56.794Z,5.40
2017-12-24T05:13:23.453Z,4.57
2017-12-24T05:15:50.122Z,5.80
2017-12-24T05:18:16.794Z,7.25
2017-12-24T05:20:43.490Z,4.05
2017-12-24T05:23:10.873Z,5.10
2017-12-24T05:25:37.529Z,5.47
2017-12-24T05:28:04.211Z,7.57
2017-12-24T05:30:30.873Z,5.37
2017-12-24T05:32:57.515Z,7.95
2017-12-24T05:35:24.185Z,4.87
2017-12-24T05:37:50.817Z,4.97
2017-12-24T05:40:17.473Z,8.68
2017-12-24T05:42:44.172Z,7.10
2017-12-24T05:45:10.865Z,4.82
2017-12-24T05:47:37.533Z,5.43
2017-12-24T05:50:04.217Z,8.70
2017-12-24T05:52:31.619Z,6.95
2017-12-24T05:54:58.293Z,6.93
2017-12-24T05:57:25.018Z,6.57
2017-12-24T05:59:52.420Z,6.95
2017-12-24T06:02:19.852Z,6.20
2017-12-24T06:04:46.516Z,5.82
2017-12-24T06:07:13.172Z,8.45
2017-12-24T06:09:40.578Z,6.80
2017-12-24T06:12:07.252Z,4.87
2017-12-24T06:14:34.679Z,6.62
2017-12-24T06:17:01.346Z,7.30
2017-12-24T06:19:28.013Z,6.68
2017-12-24T06:21:54.722Z,6.30
2017-12-24T06:24:22.297Z,7.10
2017-12-24T06:26:49.710Z,7.37
2017-12-24T06:29:16.398Z,5.25
2017-12-24T06:31:43.085Z,7.37
2017-12-24T06:34:09.749Z,8.10
2017-12-24T06:36:36.444Z,5.20
2017-12-24T06:39:03.250Z,6.78
2017-12-24T06:41:29.923Z,6.10
2017-12-24T06:43:56.629Z,6.62
2017-12-24T06:46:23.275Z,6.93
2017-12-24T06:48:49.931Z,4.72
2017-12-24T06:51:16.595Z,6.20
2017-12-24T06:53:43.246Z,5.53
2017-12-24T06:56:10.288Z,3.75
2017-12-24T06:58:37.045Z,5.28
2017-12-24T07:01:03.696Z,6.62
2017-12-24T07:03:31.078Z,4.95
2017-12-24T07:05:57.761Z,5.93
2017-12-24T07:08:24.430Z,4.28
2017-12-24T07:10:51.106Z,3.40
2017-12-24T07:13:17.758Z,5.13
2017-12-24T07:15:44.450Z,4.90
2017-12-24T07:18:11.177Z,3.50
2017-12-24T07:20:37.793Z,4.40
2017-12-24T07:23:05.459Z,4.83
2017-12-24T07:25:32.143Z,5.03
2017-12-24T07:27:59.417Z,4.43
2017-12-24T07:30:26.848Z,5.80
2017-12-24T07:32:53.515Z,6.03
2017-12-24T07:35:20.218Z,5.10
2017-12-24T07:37:46.866Z,5.80
2017-12-24T07:40:13.640Z,5.77
2017-12-24T07:42:40.434Z,4.27
2017-12-24T07:45:07.108Z,4.90
2017-12-24T07:47:33.795Z,8.83
2017-12-24T07:50:01.204Z,4.10
2017-12-24T07:52:27.842Z,5.03
2017-12-24T07:54:54.477Z,4.13
2017-12-24T07:57:21.198Z,6.30
2017-12-24T07:59:47.877Z,5.23
2017-12-24T08:02:14.555Z,5.33
2017-12-24T08:04:41.978Z,5.53
2017-12-24T08:07:08.644Z,4.90
2017-12-24T08:09:35.310Z,5.13
2017-12-24T08:12:02.783Z,4.97
2017-12-24T08:14:30.173Z,5.00
2017-12-24T08:16:56.890Z,5.20
2017-12-24T08:19:23.578Z,5.37
2017-12-24T08:21:50.250Z,5.37
2017-12-24T08:24:17.740Z,7.20
2017-12-24T08:26:44.458Z,7.87
2017-12-24T08:29:11.109Z,7.80
2017-12-24T08:31:38.496Z,9.77
2017-12-24T08:34:05.177Z,7.80
2017-12-24T08:36:31.862Z,8.80
2017-12-24T08:38:59.314Z,8.30
2017-12-24T08:41:26.819Z,9.67
2017-12-24T08:43:53.485Z,10.40
2017-12-24T08:46:20.167Z,12.33
2017-12-24T08:48:47.576Z,9.53
2017-12-24T08:51:14.361Z,8.90
2017-12-24T08:53:41.778Z,9.50
2017-12-24T08:56:08.421Z,9.10
2017-12-24T08:58:35.053Z,8.93
2017-12-24T09:01:01.698Z,8.80
2017-12-24T09:03:28.328Z,9.50
2017-12-24T09:05:55.015Z,10.30
2017-12-24T09:08:21.734Z,9.60
2017-12-24T09:10:48.412Z,10.50
2017-12-24T09:13:15.073Z,11.80
2017-12-24T09:15:42.486Z,10.90
2017-12-24T09:18:09.170Z,10.57
2017-12-24T09:20:36.545Z,11.07
2017-12-24T09:23:03.266Z,12.73
2017-12-24T09:25:30.642Z,12.20
2017-12-24T09:27:58.042Z,11.67
2017-12-24T09:30:24.757Z,12.47
2017-12-24T09:32:51.401Z,11.47
2017-12-24T09:35:18.071Z,11.57
2017-12-24T09:37:44.775Z,10.63
2017-12-24T09:40:12.155Z,13.30
2017-12-24T09:42:38.811Z,12.77
2017-12-24T09:45:05.488Z,10.13
2017-12-24T09:47:32.136Z,10.13
2017-12-24T09:49:58.801Z,11.50
2017-12-24T09:52:26.203Z,14.30
2017-12-24T09:54:52.865Z,8.93
2017-12-24T09:57:19.529Z,9.17
2017-12-24T09:59:46.955Z,9.93
2017-12-24T10:02:13.598Z,8.33
2017-12-24T10:04:40.341Z,9.70
2017-12-24T10:07:07.001Z,10.70
2017-12-24T10:09:33.667Z,9.53
2017-12-24T10:12:01.065Z,11.83
2017-12-24T10:14:27.737Z,8.83
2017-12-24T10:16:54.404Z,10.90
2017-12-24T10:19:21.790Z,14.37
2017-12-24T10:21:48.464Z,11.03
2017-12-24T10:24:15.121Z,14.47
2017-12-24T10:26:41.825Z,11.03
2017-12-24T10:29:08.511Z,10.87
2017-12-24T10:31:35.156Z,14.50
2017-12-24T10:34:01.853Z,17.83
2017-12-24T10:36:28.517Z,16.17
2017-12-24T10:38:55.178Z,16.97
2017-12-24T10:41:21.851Z,15.30
2017-12-24T10:43:48.536Z,22.17
2017-12-24T10:46:15.202Z,15.73
2017-12-24T10:48:41.967Z,11.53
2017-12-24T10:51:08.631Z,15.00
2017-12-24T10:53:36.024Z,10.63
2017-12-24T10:56:02.723Z,13.03
2017-12-24T10:58:30.122Z,21.40
2017-12-24T11:00:56.769Z,17.87
2017-12-24T11:03:23.463Z,11.80
2017-12-24T11:05:50.091Z,18.60
2017-12-24T11:08:16.723Z,16.53
2017-12-24T11:10:43.389Z,20.43
2017-12-24T11:13:10.046Z,12.60
2017-12-24T11:15:37.477Z,16.37
2017-12-24T11:18:04.185Z,14.87
2017-12-24T11:20:30.833Z,12.83
2017-12-24T11:22:57.480Z,14.10
2017-12-24T11:25:24.151Z,24.20
2017-12-24T11:27:50.802Z,17.87
2017-12-24T11:30:17.442Z,12.53
2017-12-24T11:32:44.118Z,18.00
2017-12-24T11:35:10.757Z,15.23
2017-12-24T11:37:37.478Z,13.83
2017-12-24T11:40:04.915Z,16.80
2017-12-24T11:42:31.573Z,19.27
2017-12-24T11:44:58.244Z,16.00
2017-12-24T11:47:24.928Z,21.10
2017-12-24T11:49:51.593Z,20.27
2017-12-24T11:52:18.266Z,22.00
2017-12-24T11:54:45.690Z,20.00
2017-12-24T11:57:12.349Z,23.00
2017-12-24T11:59:39.079Z,18.97
2017-12-24T12:02:05.771Z,21.10
2017-12-24T12:04:32.439Z,32.40
2017-12-24T12:06:59.124Z,17.03
2017-12-24T12:09:25.810Z,16.53
2017-12-24T12:11:52.491Z,23.30
2017-12-24T12:14:19.156Z,23.30
2017-12-24T12:16:46.590Z,24.30
2017-12-24T12:19:13.370Z,23.33
2017-12-24T12:21:40.074Z,19.73
2017-12-24T12:24:06.778Z,23.60
2017-12-24T12:26:33.464Z,26.97
2017-12-24T12:29:00.862Z,20.90
2017-12-24T12:31:28.280Z,27.80
2017-12-24T12:33:54.965Z,22.30
2017-12-24T12:36:22.353Z,20.10
2017-12-24T12:38:49.035Z,23.70
2017-12-24T12:41:15.733Z,21.03
2017-12-24T12:43:42.438Z,24.40
2017-12-24T12:46:09.119Z,29.13
2017-12-24T12:48:35.793Z,26.27
2017-12-24T12:51:02.545Z,30.40
2017-12-24T12:53:29.276Z,18.63
2017-12-24T12:55:55.972Z,17.63
2017-12-24T12:58:23.368Z,24.90
2017-12-24T13:00:50.017Z,29.20
2017-12-24T13:03:16.733Z,22.17
2017-12-24T13:05:43.385Z,32.40
2017-12-24T13:08:10.058Z,27.93
2017-12-24T13:10:37.467Z,29.33
2017-12-24T13:13:04.872Z,26.00
2017-12-24T13:15:31.554Z,22.07
2017-12-24T13:17:58.981Z,25.50
2017-12-24T13:20:25.638Z,19.97
2017-12-24T13:22:52.325Z,27.20
2017-12-24T13:25:18.978Z,35.23
2017-12-24T13:27:45.689Z,28.27
2017-12-24T13:30:13.106Z,25.57
2017-12-24T13:32:39.777Z,19.73
2017-12-24T13:35:06.435Z,22.70
2017-12-24T13:37:33.872Z,23.57
2017-12-24T13:40:01.354Z,20.40
2017-12-24T13:42:28.041Z,31.13
2017-12-24T13:44:54.725Z,27.50
2017-12-24T13:47:22.229Z,29.83
2017-12-24T13:49:48.918Z,45.57
2017-12-24T13:52:15.607Z,25.27
2017-12-24T13:54:42.318Z,24.73
2017-12-24T13:57:08.982Z,24.60
2017-12-24T13:59:35.727Z,23.50
2017-12-24T14:02:03.156Z,35.30
2017-12-24T14:04:29.872Z,27.13
2017-12-24T14:06:56.651Z,33.57
2017-12-24T14:09:23.378Z,25.90
2017-12-24T14:11:51.753Z,29.20
2017-12-24T14:14:18.450Z,33.33
2017-12-24T14:16:45.128Z,27.33
2017-12-24T14:19:11.791Z,39.33
2017-12-24T14:21:38.486Z,30.97
2017-12-24T14:24:05.922Z,36.00
2017-12-24T14:26:32.625Z,32.47
2017-12-24T14:28:59.643Z,30.20
2017-12-24T14:31:26.632Z,28.07
2017-12-24T14:33:53.283Z,38.60
2017-12-24T14:36:19.952Z,33.30
2017-12-24T14:38:46.611Z,33.57
2017-12-24T14:41:14.016Z,35.00
2017-12-24T14:43:40.671Z,34.63
2017-12-24T14:46:07.362Z,32.57
2017-12-24T14:48:34.100Z,36.43
2017-12-24T14:51:01.508Z,41.20
2017-12-24T14:53:29.268Z,35.87
2017-12-24T14:55:55.933Z,41.70
2017-12-24T14:58:22.622Z,41.47
2017-12-24T15:00:49.309Z,47.77
2017-12-24T15:03:15.954Z,36.73
2017-12-24T15:05:42.605Z,39.93
2017-12-24T15:08:09.299Z,37.37
2017-12-24T15:10:36.835Z,39.77
2017-12-24T15:13:04.280Z,43.13
2017-12-24T15:15:30.966Z,35.00
2017-12-24T15:17:57.642Z,38.40
2017-12-24T15:20:24.312Z,45.90
2017-12-24T15:22:50.982Z,39.83
2017-12-24T15:25:18.371Z,32.33
2017-12-24T15:27:45.165Z,36.53
2017-12-24T15:30:11.847Z,56.50
2017-12-24T15:32:38.516Z,40.10
2017-12-24T15:35:06.132Z,38.03
2017-12-24T15:37:33.583Z,34.70
2017-12-24T15:40:00.979Z,40.00
2017-12-24T15:42:27.634Z,36.40
2017-12-24T15:44:54.323Z,33.73
2017-12-24T15:47:20.985Z,33.60
2017-12-24T15:49:48.394Z,39.97
2017-12-24T15:52:15.087Z,35.93
2017-12-24T15:54:41.764Z,33.97
2017-12-24T15:57:08.528Z,35.37
2017-12-24T15:59:35.911Z,37.50
2017-12-24T16:02:02.616Z,32.77
2017-12-24T16:04:29.306Z,36.22
2017-12-24T16:06:56.716Z,34.20
2017-12-24T16:09:23.422Z,35.10
2017-12-24T16:11:50.832Z,30.20
2017-12-24T16:14:17.479Z,33.47
2017-12-24T16:16:44.838Z,35.97
2017-12-24T16:19:11.503Z,32.20
2017-12-24T16:21:38.170Z,33.73
2017-12-24T16:24:04.861Z,32.47
2017-12-24T16:26:31.534Z,31.20
2017-12-24T16:28:58.186Z,34.90
2017-12-24T16:31:25.653Z,35.43
2017-12-24T16:33:53.061Z,34.17
2017-12-24T16:36:19.736Z,35.30
2017-12-24T16:38:47.186Z,40.10
2017-12-24T16:41:13.867Z,35.40
2017-12-24T16:43:40.544Z,37.78
2017-12-24T16:46:07.268Z,36.63
2017-12-24T16:48:33.947Z,35.25
2017-12-24T16:51:00.652Z,30.65
2017-12-24T16:53:27.314Z,37.78
2017-12-24T16:55:53.982Z,35.85
2017-12-24T16:58:20.695Z,37.55
2017-12-24T17:00:47.354Z,33.15
2017-12-24T17:03:14.008Z,31.15
2017-12-24T17:05:40.696Z,34.70
2017-12-24T17:08:07.348Z,33.00
2017-12-24T17:10:34.040Z,31.40
2017-12-24T17:13:00.823Z,26.10
2017-12-24T17:15:28.243Z,32.80
2017-12-24T17:17:54.938Z,28.90
2017-12-24T17:20:21.644Z,29.15
2017-12-24T17:22:48.332Z,31.65
2017-12-24T17:25:14.989Z,28.70
2017-12-24T17:27:41.626Z,25.93
2017-12-24T17:30:08.310Z,28.73
2017-12-24T17:32:35.069Z,28.05
2017-12-24T17:35:02.559Z,26.85
2017-12-24T17:37:29.270Z,27.98
2017-12-24T17:39:55.937Z,24.10
2017-12-24T17:42:22.634Z,29.90
2017-12-24T17:44:49.418Z,40.95
2017-12-24T17:47:16.833Z,37.20
2017-12-24T17:49:43.535Z,29.77
2017-12-24T17:52:10.222Z,29.25
2017-12-24T17:54:36.937Z,27.55
2017-12-24T17:57:03.624Z,28.62
2017-12-24T17:59:30.318Z,23.15
2017-12-24T18:01:57.003Z,25.90
2017-12-24T18:04:23.686Z,28.12
2017-12-24T18:06:50.356Z,25.95
2017-12-24T18:09:17.016Z,26.10
2017-12-24T18:11:43.778Z,26.50
2017-12-24T18:14:10.441Z,26.12
2017-12-24T18:16:37.860Z,28.25
2017-12-24T18:19:04.541Z,27.75
2017-12-24T18:21:32.057Z,27.83
2017-12-24T18:23:58.764Z,24.75
2017-12-24T18:26:26.214Z,29.87
2017-12-24T18:28:53.643Z,32.08
2017-12-24T18:31:20.321Z,31.40
2017-12-24T18:33:47.742Z,35.53
2017-12-24T18:36:14.412Z,37.42
2017-12-24T18:38:41.841Z,35.88
2017-12-24T18:41:08.503Z,38.88
2017-12-24T18:43:35.177Z,33.63
2017-12-24T18:46:02.591Z,37.30
2017-12-24T18:48:29.318Z,35.45
2017-12-24T18:50:55.999Z,35.80
2017-12-24T18:53:22.671Z,32.63
2017-12-24T18:55:49.349Z,31.55
2017-12-24T18:58:16.012Z,32.50
2017-12-24T19:00:42.715Z,32.22
2017-12-24T19:03:09.412Z,32.28
2017-12-24T19:05:36.082Z,32.65
2017-12-24T19:08:03.511Z,33.70
2017-12-24T19:10:30.175Z,32.75
2017-12-24T19:12:57.670Z,36.95
2017-12-24T19:15:24.349Z,32.85
2017-12-24T19:17:51.026Z,27.23
2017-12-24T19:20:18.448Z,29.25
2017-12-24T19:22:45.119Z,30.65
2017-12-24T19:25:12.550Z,29.17
2017-12-24T19:27:39.310Z,23.85
2017-12-24T19:30:05.985Z,37.65
2017-12-24T19:32:32.669Z,26.30
2017-12-24T19:34:59.323Z,30.75
2017-12-24T19:37:26.042Z,31.37
2017-12-24T19:39:52.700Z,23.50
2017-12-24T19:42:19.362Z,33.55
2017-12-24T19:44:46.498Z,32.47
2017-12-24T19:47:13.890Z,34.47
2017-12-24T19:49:40.547Z,30.90
2017-12-24T19:52:07.281Z,28.58
2017-12-24T19:54:34.703Z,28.35
2017-12-24T19:57:01.396Z,37.25
2017-12-24T19:59:28.883Z,30.23
2017-12-24T20:01:55.590Z,29.27
2017-12-24T20:04:23.014Z,33.53
2017-12-24T20:06:49.710Z,30.35
2017-12-24T20:09:17.112Z,27.30
2017-12-24T20:11:43.792Z,28.67
2017-12-24T20:14:11.194Z,26.87
2017-12-24T20:16:37.870Z,29.73
2017-12-24T20:19:04.547Z,29.58
2017-12-24T20:21:31.997Z,30.33
2017-12-24T20:23:58.664Z,25.42
2017-12-24T20:26:25.310Z,29.95
2017-12-24T20:28:52.392Z,32.47
2017-12-24T20:31:19.051Z,32.05
2017-12-24T20:33:45.740Z,30.10
2017-12-24T20:36:12.417Z,35.75
2017-12-24T20:38:39.124Z,36.47
2017-12-24T20:41:06.577Z,31.50
2017-12-24T20:43:33.235Z,38.03
2017-12-24T20:46:01.231Z,36.90
2017-12-24T20:48:28.045Z,34.95
2017-12-24T20:50:55.484Z,32.58
2017-12-24T20:53:22.190Z,37.15
2017-12-24T20:55:49.611Z,37.20
2017-12-24T20:58:17.033Z,26.05
2017-12-24T21:00:43.705Z,30.02
2017-12-24T21:03:11.126Z,25.95
2017-12-24T21:05:37.780Z,23.62
2017-12-24T21:08:04.551Z,21.58
2017-12-24T21:10:31.953Z,21.95
2017-12-24T21:12:58.610Z,23.67
2017-12-24T21:15:25.319Z,26.52
2017-12-24T21:17:51.982Z,24.90
2017-12-24T21:20:18.627Z,20.55
2017-12-24T21:22:45.287Z,18.30
2017-12-24T21:25:11.931Z,18.75
2017-12-24T21:27:38.585Z,26.85
2017-12-24T21:30:05.273Z,21.80
2017-12-24T21:32:32.005Z,19.15
2017-12-24T21:35:00.241Z,20.05
2017-12-24T21:37:26.918Z,18.37
2017-12-24T21:39:54.319Z,19.55
2017-12-24T21:42:20.969Z,18.92
2017-12-24T21:44:47.645Z,22.92
2017-12-24T21:47:14.386Z,22.37
2017-12-24T21:49:41.054Z,20.35
2017-12-24T21:52:08.480Z,22.92
2017-12-24T21:54:35.146Z,21.33
2017-12-24T21:57:01.796Z,22.10
2017-12-24T21:59:29.255Z,20.83
2017-12-24T22:01:56.682Z,20.05
2017-12-24T22:04:23.338Z,22.25
2017-12-24T22:06:50.049Z,21.58
2017-12-24T22:09:16.709Z,27.75
2017-12-24T22:11:43.369Z,20.58
2017-12-24T22:14:10.090Z,20.58
2017-12-24T22:16:37.484Z,23.40
2017-12-24T22:19:04.142Z,20.20
2017-12-24T22:21:31.587Z,21.00
2017-12-24T22:23:58.227Z,22.73
2017-12-24T22:26:24.878Z,16.40
2017-12-24T22:28:53.206Z,25.23
2017-12-24T22:31:19.862Z,18.55
2017-12-24T22:33:46.514Z,22.37
2017-12-24T22:36:13.215Z,19.60
2017-12-24T22:38:39.887Z,22.05
2017-12-24T22:41:06.531Z,25.48
2017-12-24T22:43:33.176Z,20.25
2017-12-24T22:45:59.812Z,18.10
2017-12-24T22:48:26.470Z,17.58
2017-12-24T22:50:53.145Z,18.30
2017-12-24T22:53:20.556Z,20.10
2017-12-24T22:55:47.256Z,19.62
2017-12-24T22:58:14.677Z,18.05
2017-12-24T23:00:42.129Z,18.30
2017-12-24T23:03:09.804Z,19.98
2017-12-24T23:05:36.481Z,17.65
2017-12-24T23:08:03.886Z,21.35
2017-12-24T23:10:30.578Z,26.12
2017-12-24T23:12:58.102Z,24.90
2017-12-24T23:15:24.824Z,25.98
2017-12-24T23:17:51.466Z,23.12
2017-12-24T23:20:19.666Z,21.42
2017-12-24T23:22:46.323Z,20.77
2017-12-24T23:25:12.970Z,20.05
2017-12-24T23:27:40.690Z,20.20
2017-12-24T23:30:07.353Z,27.67
2017-12-24T23:32:34.024Z,24.42
2017-12-24T23:35:00.707Z,20.05
2017-12-24T23:37:27.370Z,21.92
2017-12-24T23:39:54.042Z,24.25
2017-12-24T23:42:20.724Z,21.05
2017-12-24T23:44:48.106Z,20.58
2017-12-24T23:47:14.805Z,19.85
2017-12-24T23:49:42.371Z,22.40
2017-12-24T23:52:09.104Z,26.98
2017-12-24T23:54:35.759Z,19.67
2017-12-24T23:57:03.292Z,19.67
2017-12-24T23:59:29.994Z,14.50
